< < Back
Terminal Aerodrome Forecast


Current Version              Previous Versions:   1  2  3  4  5  6  7  8  9  

Terminal Aerodrome Forecast

685
FTUS42 KJAX 302112 AAA
TAFSSI
TAF AMD
KSSI 302112Z 3021/3118 16008KT P6SM FEW040
     FM310200 VRB03KT P6SM SKC
     FM311300 VRB04KT P6SM VCSH BKN025=



Latest METAR

870
SAUS70 KWBC 310700 RRD
MTRSSI
METAR KSSI 310653Z AUTO 23005KT 10SM CLR 26/24 A2992 RMK AO2 SLP131
T02610239 $


USA.gov is the U.S. government's official web portal to all federal, state and local government web resources and services.